»·PEaware :: AAL2633 KPHL-KSAN

AAL2633 :: KPHL-KSAN

FLIGHT INFORMATION

Flight Status: Arrived
Operator:
American Airlines
More flights by this operator :: More flights under this callsign
Pilot: Chris A. (85)
Aircraft: BOEING 737-800
(B738)
More flights by this aircraft type
Origin: KPHL Philadelphia Intl
United States
Destination: KSAN San Diego Intl-Lindbergh
United States
More flights between these airports :: More routes between these airports
Route: +MXE PENSY J110 FLIRT J6 LIT TXK BYP UKW GTH CNX J74 SJN J18 HOGGZ LUCKI1
File this flight plan on PilotEdge
Remarks: PBN / A1B1C1D1S1S2 NAV / RNVD1E2A1 DOF / 170616 REG / N905AN EET / KZNY0005 KZDC0021 KZID0045 KZME0123 KZFW0218 KZAB0329 KZLA0452 SEL / BHAD RMK / TCAS EQPT
Altitude:
(Current/Filed)
30,000ft
Speed:
(Current/Filed)
453kts
Departed: 16-Jun-17 02:23 PM
Arrived: 16-Jun-17 04:16 PM
Distance/Time
Traveled:
2054nm/1:53
Distance/Time
To Go:
Arrived

Flight Plot

Page will automatically refresh every two minutes.

Flight plan parsing failed; only flown route is shown


Map Options




Map Legend


Flown Route
Filed Route
Departure Airport
Arrival Airport
Navaid (VOR, NDB)
Fix

Horizontal Profiles

Position Reports

Time Latitude Longitude Heading Altitude Ground
Speed
16-Jun-17 14:25 34.240089 -104.321840 271 35983ft 382kts
16-Jun-17 14:26 34.252616 -104.448775 271 35987ft 380kts
16-Jun-17 14:27 34.264989 -104.575466 270 36012ft 379kts
16-Jun-17 14:28 34.277226 -104.702147 270 36038ft 378kts
16-Jun-17 14:29 34.289234 -104.827899 270 36056ft 375kts
16-Jun-17 14:30 34.301049 -104.952954 270 36073ft 374kts
16-Jun-17 14:31 34.312731 -105.077993 270 36093ft 372kts
16-Jun-17 14:32 34.306198 -105.200115 256 36119ft 363kts
16-Jun-17 14:33 34.288270 -105.319746 256 36133ft 361kts
16-Jun-17 14:34 34.270170 -105.439396 256 36138ft 361kts
16-Jun-17 14:35 34.252062 -105.558168 256 36148ft 359kts
16-Jun-17 14:36 34.234255 -105.676885 256 36153ft 359kts
16-Jun-17 14:37 34.216343 -105.795623 256 36153ft 358kts
16-Jun-17 14:38 34.198283 -105.913822 256 36147ft 358kts
16-Jun-17 14:39 34.180074 -106.031902 256 36134ft 358kts
16-Jun-17 14:40 34.161682 -106.150251 255 36112ft 358kts
16-Jun-17 14:41 34.143227 -106.268169 255 36100ft 358kts
16-Jun-17 14:42 34.124655 -106.386031 255 36090ft 358kts
16-Jun-17 14:43 34.105937 -106.504046 255 36078ft 356kts
16-Jun-17 14:44 34.087206 -106.621380 255 36067ft 357kts
16-Jun-17 14:45 34.068329 -106.738865 255 36057ft 357kts
16-Jun-17 14:46 34.049304 -106.856531 255 36050ft 356kts
16-Jun-17 14:47 34.030300 -106.973341 255 36050ft 355kts
16-Jun-17 14:48 34.011192 -107.090039 255 36051ft 354kts
16-Jun-17 14:49 33.991936 -107.206909 255 36053ft 358kts
16-Jun-17 14:50 33.972473 -107.324315 255 36058ft 356kts
16-Jun-17 14:51 33.952989 -107.441125 255 36063ft 356kts
16-Jun-17 14:52 33.933370 -107.558029 255 36068ft 355kts
16-Jun-17 14:53 33.913754 -107.674213 255 36072ft 353kts
16-Jun-17 14:54 33.894069 -107.790105 255 36076ft 354kts
16-Jun-17 14:55 33.874250 -107.906094 255 36080ft 353kts
16-Jun-17 14:56 33.854409 -108.021549 255 36077ft 352kts
16-Jun-17 14:57 33.834465 -108.136887 254 36083ft 352kts
16-Jun-17 14:58 33.814311 -108.252760 254 36066ft 353kts
16-Jun-17 14:59 33.794099 -108.368296 254 36101ft 354kts
16-Jun-17 15:00 33.773657 -108.484463 255 36124ft 354kts
16-Jun-17 15:01 33.753145 -108.600383 255 36121ft 356kts
16-Jun-17 15:02 33.732465 -108.716569 255 36118ft 357kts
16-Jun-17 15:03 33.711548 -108.833420 255 36114ft 358kts
16-Jun-17 15:04 33.690543 -108.950081 255 36110ft 358kts
16-Jun-17 15:05 33.669390 -109.066904 255 36104ft 359kts
16-Jun-17 15:06 33.648024 -109.184232 255 36098ft 359kts
16-Jun-17 15:07 33.626628 -109.301084 255 36092ft 359kts
16-Jun-17 15:08 33.605065 -109.418147 255 36101ft 359kts
16-Jun-17 15:09 33.583335 -109.535474 255 36115ft 359kts
16-Jun-17 15:10 33.561580 -109.652285 255 36111ft 359kts
16-Jun-17 15:11 33.539714 -109.769038 255 36103ft 359kts
16-Jun-17 15:11 33.521329 -109.866714 255 36102ft 359kts
16-Jun-17 15:12 33.499266 -109.983342 255 36100ft 359kts
16-Jun-17 15:14 33.473329 -110.119638 254 36099ft 361kts
16-Jun-17 15:14 33.454587 -110.217587 254 36099ft 361kts
16-Jun-17 15:15 33.432092 -110.334589 254 36086ft 361kts
16-Jun-17 15:16 33.409449 -110.451696 254 36083ft 362kts
16-Jun-17 15:17 33.386609 -110.569199 254 36077ft 362kts
16-Jun-17 15:18 33.363680 -110.686531 254 36029ft 362kts
16-Jun-17 15:19 33.340608 -110.803954 254 36009ft 363kts
16-Jun-17 15:20 33.317289 -110.922016 254 35999ft 364kts
16-Jun-17 15:21 33.293882 -111.039892 254 35994ft 365kts
16-Jun-17 15:22 33.270301 -111.158023 254 35986ft 366kts
16-Jun-17 15:23 33.246506 -111.276583 254 35983ft 367kts
16-Jun-17 15:24 33.222650 -111.394839 254 35980ft 366kts
16-Jun-17 15:25 33.198688 -111.512992 254 35976ft 367kts
16-Jun-17 15:26 33.174473 -111.631776 254 35974ft 367kts
16-Jun-17 15:27 33.150248 -111.749989 254 35972ft 367kts
16-Jun-17 15:28 33.125890 -111.868232 254 35970ft 367kts
16-Jun-17 15:29 33.101358 -111.986702 254 35968ft 367kts
16-Jun-17 15:30 33.076635 -112.105474 254 35969ft 371kts
16-Jun-17 15:31 33.051704 -112.224631 254 35957ft 370kts
16-Jun-17 15:32 33.026582 -112.344334 254 35955ft 371kts
16-Jun-17 15:33 33.001258 -112.463557 254 35956ft 371kts
16-Jun-17 15:34 32.975681 -112.582780 254 35955ft 373kts
16-Jun-17 15:35 32.951278 -112.702920 258 35954ft 373kts
16-Jun-17 15:36 32.935313 -112.824971 259 35954ft 374kts
16-Jun-17 15:37 32.918981 -112.947159 258 35954ft 374kts
16-Jun-17 15:38 32.902284 -113.069782 258 35953ft 375kts
16-Jun-17 15:39 32.885875 -113.192143 258 35953ft 375kts
16-Jun-17 15:40 32.869147 -113.314656 259 35952ft 376kts
16-Jun-17 15:41 32.852310 -113.437587 258 35951ft 376kts
16-Jun-17 15:42 32.835103 -113.560026 258 35949ft 375kts
16-Jun-17 15:43 32.817758 -113.682623 258 35947ft 376kts
16-Jun-17 15:44 32.800205 -113.805601 258 35945ft 376kts
16-Jun-17 15:45 32.782386 -113.928153 258 35942ft 376kts
16-Jun-17 15:46 32.775133 -114.052938 266 35940ft 381kts
16-Jun-17 15:47 32.779332 -114.179130 269 35937ft 383kts
16-Jun-17 15:48 32.784373 -114.305467 269 35934ft 383kts
16-Jun-17 15:49 32.800740 -114.431333 282 35933ft 391kts
16-Jun-17 15:50 32.833982 -114.554399 283 35932ft 392kts
16-Jun-17 15:51 32.867343 -114.676937 281 35117ft 383kts
16-Jun-17 15:52 32.876552 -114.799519 267 33367ft 366kts
16-Jun-17 15:53 32.874646 -114.918957 267 31710ft 357kts
16-Jun-17 15:54 32.872467 -115.035704 267 30208ft 354kts
16-Jun-17 15:55 32.869512 -115.161186 267 28980ft 385kts
16-Jun-17 15:56 32.866280 -115.286185 267 27204ft 373kts
16-Jun-17 15:57 32.856172 -115.405047 260 25478ft 365kts
16-Jun-17 15:58 32.838705 -115.523420 260 23677ft 360kts
16-Jun-17 15:59 32.819941 -115.638136 260 22115ft 350kts
16-Jun-17 16:00 32.801260 -115.751077 259 20395ft 346kts
16-Jun-17 16:01 32.783373 -115.863085 263 18761ft 342kts
16-Jun-17 16:02 32.775452 -115.975432 265 17226ft 341kts
16-Jun-17 16:03 32.767383 -116.086870 265 15762ft 337kts
16-Jun-17 16:04 32.758884 -116.197695 265 14278ft 333kts
16-Jun-17 16:05 32.750544 -116.305769 265 12838ft 324kts
16-Jun-17 16:06 32.742607 -116.407980 265 11750ft 295kts
16-Jun-17 16:07 32.734882 -116.505138 264 10122ft 296kts
16-Jun-17 16:08 32.725767 -116.599696 263 8837ft 282kts
16-Jun-17 16:09 32.717436 -116.691572 265 7624ft 275kts
16-Jun-17 16:10 32.710844 -116.775749 265 6582ft 247kts
16-Jun-17 16:11 32.697187 -116.853383 249 5535ft 230kts
16-Jun-17 16:12 32.676295 -116.920051 251 4526ft 201kts
16-Jun-17 16:13 32.681250 -116.979507 289 3663ft 177kts
16-Jun-17 16:14 32.695859 -117.034947 287 2838ft 175kts
16-Jun-17 16:15 32.709208 -117.089277 286 1900ft 163kts
16-Jun-17 16:16 32.721011 -117.137757 286 1005ft 145kts
16-Jun-17 16:17 32.732107 -117.183822 285 28ft 135kts
16-Jun-17 16:18 32.734872 -117.199029 260 23ft 5kts
16-Jun-17 16:19 32.735424 -117.201524 286 23ft 8kts
16-Jun-17 16:20 32.734492 -117.202581 180 23ft 2kts
16-Jun-17 16:21 32.733816 -117.202157 142 23ft 0kts
16-Jun-17 16:22 32.733816 -117.202157 142 23ft 0kts
16-Jun-17 16:23 32.733816 -117.202157 142 23ft 0kts
16-Jun-17 16:24 32.733816 -117.202157 142 23ft 0kts
16-Jun-17 16:25 32.733816 -117.202157 142 23ft 0kts
16-Jun-17 16:26 32.733816 -117.202157 142 23ft 0kts

Navigation Log

Ident Type
Flight plan parsing failed, navigation log unavailable